createdAt,value
2018-09-22T00:01:50.930Z,13.20
2018-09-22T00:04:19.291Z,13.20
2018-09-22T00:06:47.946Z,13.20
2018-09-22T00:09:16.578Z,13.10
2018-09-22T00:11:44.926Z,13.20
2018-09-22T00:14:13.563Z,13.10
2018-09-22T00:16:41.999Z,13.10
2018-09-22T00:19:10.726Z,13.10
2018-09-22T00:21:39.111Z,13.00
2018-09-22T00:24:07.810Z,13.00
2018-09-22T00:26:36.203Z,13.00
2018-09-22T00:29:04.846Z,12.90
2018-09-22T00:31:34.203Z,12.90
2018-09-22T00:34:02.560Z,12.90
2018-09-22T00:36:31.210Z,12.80
2018-09-22T00:38:59.572Z,12.80
2018-09-22T00:41:28.174Z,12.80
2018-09-22T00:43:56.529Z,12.70
2018-09-22T00:46:25.207Z,12.80
2018-09-22T00:48:53.536Z,12.70
2018-09-22T00:51:21.956Z,12.70
2018-09-22T00:53:50.295Z,12.60
2018-09-22T00:56:18.738Z,12.60
2018-09-22T00:58:47.479Z,12.60
2018-09-22T01:01:16.211Z,12.60
2018-09-22T01:03:45.122Z,12.60
2018-09-22T01:06:14.006Z,12.50
2018-09-22T01:08:42.366Z,12.50
2018-09-22T01:11:11.687Z,12.50
2018-09-22T01:13:40.063Z,12.40
2018-09-22T01:16:09.319Z,12.40
2018-09-22T01:18:37.672Z,12.40
2018-09-22T01:21:06.387Z,12.40
2018-09-22T01:23:34.735Z,12.40
2018-09-22T01:26:03.317Z,12.30
2018-09-22T01:28:31.950Z,12.30
2018-09-22T01:31:00.670Z,12.40
2018-09-22T01:33:29.547Z,12.40
2018-09-22T01:35:57.975Z,12.30
2018-09-22T01:38:26.626Z,12.30
2018-09-22T01:40:54.986Z,12.30
2018-09-22T01:43:23.924Z,12.30
2018-09-22T01:45:52.636Z,12.30
2018-09-22T01:48:21.035Z,12.30
2018-09-22T01:50:49.406Z,12.30
2018-09-22T01:53:17.771Z,12.30
2018-09-22T01:55:46.406Z,12.30
2018-09-22T01:58:15.578Z,12.30
2018-09-22T02:00:44.282Z,12.20
2018-09-22T02:03:12.666Z,12.30
2018-09-22T02:05:41.030Z,12.20
2018-09-22T02:08:09.650Z,12.30
2018-09-22T02:10:38.126Z,12.20
2018-09-22T02:13:07.051Z,12.20
2018-09-22T02:15:35.678Z,12.20
2018-09-22T02:18:04.082Z,12.20
2018-09-22T02:20:32.546Z,12.20
2018-09-22T02:23:01.411Z,12.20
2018-09-22T02:25:29.778Z,12.20
2018-09-22T02:27:58.591Z,12.20
2018-09-22T02:30:26.939Z,12.10
2018-09-22T02:32:55.536Z,12.10
2018-09-22T02:35:23.898Z,12.10
2018-09-22T02:37:52.495Z,12.10
2018-09-22T02:40:20.855Z,12.00
2018-09-22T02:42:49.203Z,12.00
2018-09-22T02:45:17.556Z,12.00
2018-09-22T02:47:45.931Z,12.00
2018-09-22T02:50:14.295Z,12.00
2018-09-22T02:52:42.971Z,11.90
2018-09-22T02:55:11.728Z,11.90
2018-09-22T02:57:40.386Z,11.80
2018-09-22T03:00:09.127Z,11.80
2018-09-22T03:02:38.507Z,11.80
2018-09-22T03:05:07.215Z,11.80
2018-09-22T03:07:36.107Z,11.80
2018-09-22T03:10:04.930Z,11.70
2018-09-22T03:12:33.503Z,11.70
2018-09-22T03:15:02.341Z,11.70
2018-09-22T03:17:31.043Z,11.60
2018-09-22T03:19:59.783Z,11.60
2018-09-22T03:22:28.437Z,11.60
2018-09-22T03:24:57.079Z,11.60
2018-09-22T03:27:26.415Z,11.50
2018-09-22T03:29:54.861Z,11.50
2018-09-22T03:32:23.659Z,11.50
2018-09-22T03:34:52.319Z,11.40
2018-09-22T03:37:21.971Z,11.40
2018-09-22T03:39:50.327Z,11.40
2018-09-22T03:42:19.287Z,11.40
2018-09-22T03:44:47.984Z,11.40
2018-09-22T03:47:16.375Z,11.30
2018-09-22T03:49:44.739Z,11.30
2018-09-22T03:52:13.076Z,11.30
2018-09-22T03:54:41.691Z,11.20
2018-09-22T03:57:10.031Z,11.20
2018-09-22T03:59:38.763Z,11.20
2018-09-22T04:02:07.487Z,11.20
2018-09-22T04:04:35.875Z,11.20
2018-09-22T04:07:04.565Z,11.10
2018-09-22T04:09:33.547Z,11.10
2018-09-22T04:12:01.934Z,11.10
2018-09-22T04:14:30.304Z,11.10
2018-09-22T04:16:59.603Z,11.10
2018-09-22T04:19:28.291Z,11.10
2018-09-22T04:21:57.623Z,11.10
2018-09-22T04:24:27.019Z,11.10
2018-09-22T04:26:55.447Z,11.10
2018-09-22T04:29:23.815Z,11.00
2018-09-22T04:31:52.739Z,11.00
2018-09-22T04:34:21.542Z,11.00
2018-09-22T04:36:50.143Z,11.00
2018-09-22T04:39:18.516Z,11.00
2018-09-22T04:41:47.749Z,10.80
2018-09-22T04:44:16.150Z,10.70
2018-09-22T04:46:44.866Z,10.70
2018-09-22T04:49:13.994Z,10.60
2018-09-22T04:51:42.734Z,10.40
2018-09-22T04:54:11.085Z,10.30
2018-09-22T04:56:39.800Z,10.30
2018-09-22T04:59:08.194Z,10.20
2018-09-22T05:01:36.839Z,10.30
2018-09-22T05:04:05.754Z,10.40
2018-09-22T05:06:34.116Z,10.40
2018-09-22T05:09:02.859Z,10.40
2018-09-22T05:11:31.732Z,10.30
2018-09-22T05:14:00.394Z,10.30
2018-09-22T05:16:28.855Z,10.40
2018-09-22T05:18:57.898Z,10.40
2018-09-22T05:21:27.163Z,10.40
2018-09-22T05:23:55.866Z,10.40
2018-09-22T05:26:24.230Z,10.40
2018-09-22T05:28:52.903Z,10.40
2018-09-22T05:31:21.278Z,10.40
2018-09-22T05:33:49.634Z,10.40
2018-09-22T05:36:17.973Z,10.40
2018-09-22T05:38:46.859Z,10.40
2018-09-22T05:41:15.443Z,10.40
2018-09-22T05:43:44.312Z,10.50
2018-09-22T05:46:12.914Z,10.60
2018-09-22T05:48:41.547Z,10.70
2018-09-22T05:51:10.266Z,10.70
2018-09-22T05:53:38.851Z,10.80
2018-09-22T05:56:07.783Z,10.90
2018-09-22T05:58:36.130Z,10.90
2018-09-22T06:01:04.484Z,11.00
2018-09-22T06:03:32.908Z,11.10
2018-09-22T06:06:01.519Z,11.10
2018-09-22T06:08:29.923Z,11.10
2018-09-22T06:10:58.268Z,11.20
2018-09-22T06:13:27.172Z,11.30
2018-09-22T06:15:55.531Z,11.50
2018-09-22T06:18:24.186Z,11.60
2018-09-22T06:20:52.614Z,11.70
2018-09-22T06:23:21.241Z,11.80
2018-09-22T06:25:50.169Z,11.90
2018-09-22T06:28:18.545Z,12.00
2018-09-22T06:30:47.182Z,12.10
2018-09-22T06:33:15.806Z,12.20
2018-09-22T06:35:44.418Z,12.10
2018-09-22T06:38:13.138Z,12.10
2018-09-22T06:40:41.765Z,12.10
2018-09-22T06:43:11.018Z,12.30
2018-09-22T06:45:39.602Z,12.40
2018-09-22T06:48:08.500Z,12.60
2018-09-22T06:50:36.888Z,12.40
2018-09-22T06:53:05.556Z,12.40
2018-09-22T06:55:34.230Z,12.70
2018-09-22T06:58:02.883Z,12.90
2018-09-22T07:00:31.506Z,13.20
2018-09-22T07:03:00.414Z,13.40
2018-09-22T07:05:29.039Z,13.60
2018-09-22T07:07:57.415Z,13.80
2018-09-22T07:10:25.790Z,14.20
2018-09-22T07:12:54.131Z,14.50
2018-09-22T07:15:22.519Z,14.80
2018-09-22T07:17:50.876Z,15.20
2018-09-22T07:20:19.530Z,15.30
2018-09-22T07:22:53.566Z,15.40
2018-09-22T07:25:22.013Z,15.50
2018-09-22T07:27:50.347Z,15.70
2018-09-22T07:30:18.702Z,15.70
2018-09-22T07:32:47.155Z,15.80
2018-09-22T07:35:15.506Z,15.60
2018-09-22T07:37:43.874Z,15.70
2018-09-22T07:40:13.034Z,15.80
2018-09-22T07:42:42.150Z,15.70
2018-09-22T07:45:10.530Z,15.70
2018-09-22T07:47:39.248Z,15.80
2018-09-22T07:50:07.719Z,15.90
2018-09-22T07:52:36.103Z,16.00
2018-09-22T07:55:04.534Z,16.00
2018-09-22T07:57:33.447Z,16.00
2018-09-22T08:00:01.817Z,16.00
2018-09-22T08:02:30.457Z,16.10
2018-09-22T08:04:58.826Z,16.00
2018-09-22T08:07:27.187Z,16.10
2018-09-22T08:09:55.836Z,16.20
2018-09-22T08:12:24.847Z,16.40
2018-09-22T08:14:53.791Z,16.50
2018-09-22T08:17:22.498Z,16.90
2018-09-22T08:19:51.134Z,17.10
2018-09-22T08:22:20.206Z,17.10
2018-09-22T08:24:48.583Z,17.00
2018-09-22T08:27:16.955Z,17.10
2018-09-22T08:29:45.534Z,17.40
2018-09-22T08:32:13.963Z,18.30
2018-09-22T08:34:42.323Z,18.20
2018-09-22T08:37:11.635Z,18.30
2018-09-22T08:39:40.233Z,18.40
2018-09-22T08:42:09.048Z,18.70
2018-09-22T08:44:38.039Z,18.70
2018-09-22T08:47:07.095Z,18.80
2018-09-22T08:49:35.518Z,18.40
2018-09-22T08:52:03.876Z,18.20
2018-09-22T08:54:32.255Z,17.80
2018-09-22T08:57:00.622Z,17.90
2018-09-22T08:59:29.575Z,18.10
2018-09-22T09:01:57.918Z,18.30
2018-09-22T09:04:26.550Z,18.30
2018-09-22T09:06:54.900Z,18.50
2018-09-22T09:09:23.291Z,18.80
2018-09-22T09:11:51.866Z,18.90
2018-09-22T09:14:20.296Z,19.00
2018-09-22T09:16:48.902Z,19.20
2018-09-22T09:19:17.235Z,18.80
2018-09-22T09:21:45.922Z,18.80
2018-09-22T09:24:14.279Z,19.00
2018-09-22T09:26:42.854Z,19.00
2018-09-22T09:29:12.231Z,19.10
2018-09-22T09:31:40.911Z,18.80
2018-09-22T09:34:09.402Z,18.70
2018-09-22T09:36:37.774Z,18.90
2018-09-22T09:39:06.194Z,19.30
2018-09-22T09:41:34.545Z,18.60
2018-09-22T09:44:03.539Z,18.30
2018-09-22T09:46:31.895Z,18.10
2018-09-22T09:49:00.279Z,19.00
2018-09-22T09:51:28.627Z,18.60
2018-09-22T09:53:56.991Z,18.50
2018-09-22T09:56:25.922Z,19.50
2018-09-22T09:58:54.278Z,19.90
2018-09-22T10:01:22.651Z,20.00
2018-09-22T10:03:50.991Z,19.90
2018-09-22T10:06:19.374Z,19.90
2018-09-22T10:08:47.718Z,20.50
2018-09-22T10:11:16.071Z,20.00
2018-09-22T10:13:45.199Z,19.00
2018-09-22T10:16:13.595Z,19.50
2018-09-22T10:18:42.259Z,19.70
2018-09-22T10:21:11.240Z,20.20
2018-09-22T10:23:39.886Z,20.00
2018-09-22T10:26:09.162Z,19.70
2018-09-22T10:28:37.623Z,19.60
2018-09-22T10:31:06.439Z,20.00
2018-09-22T10:33:34.795Z,20.30
2018-09-22T10:36:03.177Z,21.40
2018-09-22T10:45:57.847Z,22.00
2018-09-22T10:48:26.460Z,22.70
2018-09-22T10:50:55.167Z,23.30
2018-09-22T10:53:23.810Z,23.20
2018-09-22T10:55:52.195Z,23.00
2018-09-22T10:58:20.839Z,23.40
2018-09-22T11:00:49.175Z,23.90
2018-09-22T11:03:17.894Z,24.10
2018-09-22T11:08:15.299Z,24.60
2018-09-22T11:10:44.012Z,23.70
2018-09-22T11:13:12.368Z,22.10
2018-09-22T11:15:41.003Z,21.60
2018-09-22T11:25:34.627Z,21.60
2018-09-22T11:28:03.339Z,21.80
2018-09-22T11:30:32.691Z,22.30
2018-09-22T11:33:01.283Z,22.00
2018-09-22T11:35:29.671Z,22.00
2018-09-22T11:40:26.440Z,21.80
2018-09-22T11:42:54.838Z,22.30
2018-09-22T11:45:23.794Z,22.70
2018-09-22T11:47:52.423Z,22.80
2018-09-22T11:50:21.303Z,23.40
2018-09-22T11:52:49.930Z,23.40
2018-09-22T11:55:18.323Z,22.60
2018-09-22T11:57:47.023Z,24.00
2018-09-22T12:00:15.426Z,24.60
2018-09-22T12:02:44.694Z,25.20
2018-09-22T12:05:13.038Z,23.70
2018-09-22T12:07:41.511Z,22.80
2018-09-22T12:10:10.147Z,23.10
2018-09-22T12:12:38.839Z,24.00
2018-09-22T12:15:07.949Z,24.70
2018-09-22T12:17:37.131Z,25.30
2018-09-22T12:20:05.554Z,25.90
2018-09-22T12:22:33.923Z,25.40
2018-09-22T12:25:02.571Z,24.80
2018-09-22T12:27:31.146Z,24.20
2018-09-22T12:29:59.782Z,21.10
2018-09-22T12:34:56.971Z,20.40
2018-09-22T12:37:25.495Z,20.80
2018-09-22T12:39:54.194Z,21.40
2018-09-22T12:42:22.618Z,22.60
2018-09-22T12:44:50.969Z,22.80
2018-09-22T12:47:20.350Z,21.60
2018-09-22T12:49:48.943Z,20.70
2018-09-22T12:52:17.562Z,20.90
2018-09-22T12:54:46.260Z,21.30
2018-09-22T12:57:14.631Z,22.40
2018-09-22T12:59:43.313Z,22.40
2018-09-22T13:02:11.959Z,23.70
2018-09-22T13:04:40.609Z,24.30
2018-09-22T13:07:09.373Z,24.30
2018-09-22T13:09:38.514Z,25.00
2018-09-22T13:12:07.290Z,24.40
2018-09-22T13:14:35.679Z,23.60
2018-09-22T13:17:04.083Z,22.10
2018-09-22T13:19:32.442Z,21.50
2018-09-22T13:22:01.031Z,20.70
2018-09-22T13:24:29.631Z,21.30
2018-09-22T13:26:58.594Z,22.40
2018-09-22T13:29:27.275Z,22.80
2018-09-22T13:31:55.862Z,21.80
2018-09-22T13:34:24.243Z,21.40
2018-09-22T13:36:52.935Z,20.80
2018-09-22T13:39:21.315Z,20.80
2018-09-22T13:41:49.966Z,21.20
2018-09-22T13:44:18.628Z,21.60
2018-09-22T13:46:47.106Z,21.50
2018-09-22T13:49:15.507Z,21.30
2018-09-22T13:51:44.683Z,20.30
2018-09-22T13:54:13.778Z,19.60
2018-09-22T13:56:42.483Z,19.70
2018-09-22T13:59:10.858Z,19.90
2018-09-22T14:01:39.795Z,20.20
2018-09-22T14:04:08.151Z,20.00
2018-09-22T14:06:37.715Z,20.50
2018-09-22T14:09:08.723Z,20.50
2018-09-22T14:11:37.083Z,20.60
2018-09-22T14:14:06.370Z,20.40
2018-09-22T14:16:35.326Z,20.00
2018-09-22T14:19:03.881Z,20.00
2018-09-22T14:21:32.234Z,20.20
2018-09-22T14:24:00.977Z,20.50
2018-09-22T14:26:29.735Z,20.40
2018-09-22T14:28:58.153Z,20.00
2018-09-22T14:31:26.822Z,20.20
2018-09-22T14:33:55.494Z,19.60
2018-09-22T14:36:24.170Z,19.90
2018-09-22T14:38:52.542Z,20.30
2018-09-22T14:41:20.905Z,20.30
2018-09-22T14:43:49.533Z,20.40
2018-09-22T14:46:18.123Z,20.20
2018-09-22T14:48:47.130Z,20.10
2018-09-22T14:51:15.496Z,20.10
2018-09-22T14:53:43.891Z,20.20
2018-09-22T14:56:12.271Z,20.20
2018-09-22T14:58:41.285Z,20.20
2018-09-22T15:01:09.991Z,20.10
2018-09-22T15:03:38.343Z,19.90
2018-09-22T15:06:06.771Z,19.90
2018-09-22T15:08:35.153Z,19.90
2018-09-22T15:11:03.527Z,19.90
2018-09-22T15:13:31.926Z,19.90
2018-09-22T15:16:00.851Z,19.90
2018-09-22T15:18:29.270Z,19.70
2018-09-22T15:20:57.884Z,19.50
2018-09-22T15:23:26.302Z,19.60
2018-09-22T15:25:54.976Z,19.60
2018-09-22T15:28:23.331Z,19.60
2018-09-22T15:30:51.829Z,19.60
2018-09-22T15:33:20.427Z,19.60
2018-09-22T15:35:49.085Z,19.60
2018-09-22T15:38:17.466Z,19.50
2018-09-22T15:40:45.846Z,19.30
2018-09-22T15:43:14.451Z,19.10
2018-09-22T15:45:42.813Z,19.10
2018-09-22T15:48:11.261Z,19.00
2018-09-22T15:50:39.617Z,19.00
2018-09-22T15:53:08.038Z,18.90
2018-09-22T15:55:36.418Z,18.90
2018-09-22T15:58:05.063Z,18.80
2018-09-22T16:00:33.790Z,18.70
2018-09-22T16:03:02.134Z,18.70
2018-09-22T16:05:30.514Z,18.50
2018-09-22T16:07:59.416Z,18.40
2018-09-22T16:10:27.808Z,18.40
2018-09-22T16:12:56.166Z,18.30
2018-09-22T16:15:24.819Z,18.10
2018-09-22T16:17:53.439Z,18.20
2018-09-22T16:20:21.830Z,18.20
2018-09-22T16:22:50.499Z,18.10
2018-09-22T16:25:19.900Z,18.10
2018-09-22T16:27:48.247Z,18.00
2018-09-22T16:30:16.614Z,17.90
2018-09-22T16:32:45.258Z,17.90
2018-09-22T16:35:13.705Z,17.80
2018-09-22T16:37:42.406Z,17.70
2018-09-22T16:40:10.791Z,17.70
2018-09-22T16:42:39.223Z,17.60
2018-09-22T16:45:07.895Z,17.50
2018-09-22T16:47:36.259Z,17.50
2018-09-22T16:50:04.673Z,17.50
2018-09-22T16:52:33.346Z,17.50
2018-09-22T16:55:02.011Z,17.50
2018-09-22T16:57:30.382Z,17.40
2018-09-22T16:59:58.759Z,17.30
2018-09-22T17:02:27.632Z,17.30
2018-09-22T17:04:56.002Z,17.20
2018-09-22T17:07:24.686Z,17.10
2018-09-22T17:09:53.104Z,17.10
2018-09-22T17:12:21.478Z,17.00
2018-09-22T17:14:50.562Z,17.00
2018-09-22T17:17:19.543Z,17.00
2018-09-22T17:19:48.420Z,17.00
2018-09-22T17:22:17.054Z,16.90
2018-09-22T17:24:45.688Z,16.90
2018-09-22T17:27:14.104Z,16.80
2018-09-22T17:29:42.495Z,16.80
2018-09-22T17:32:10.890Z,16.80
2018-09-22T17:34:39.253Z,16.70
2018-09-22T17:37:07.959Z,16.70
2018-09-22T17:39:36.310Z,16.80
2018-09-22T17:42:05.255Z,16.70
2018-09-22T17:44:33.876Z,16.70
2018-09-22T17:47:02.466Z,16.70
2018-09-22T17:49:31.106Z,16.60
2018-09-22T17:51:59.696Z,16.60
2018-09-22T17:54:28.047Z,16.70
2018-09-22T17:56:56.684Z,16.70
2018-09-22T17:59:25.072Z,16.60
2018-09-22T18:01:54.350Z,16.90
2018-09-22T18:04:22.705Z,16.60
2018-09-22T18:06:51.098Z,16.50
2018-09-22T18:09:19.788Z,16.50
2018-09-22T18:11:48.439Z,16.50
2018-09-22T18:14:16.831Z,16.40
2018-09-22T18:16:45.588Z,16.40
2018-09-22T18:19:13.970Z,16.40
2018-09-22T18:21:42.366Z,16.30
2018-09-22T18:24:10.748Z,16.30
2018-09-22T18:26:39.343Z,16.30
2018-09-22T18:29:08.003Z,16.20
2018-09-22T18:31:36.366Z,16.20
2018-09-22T18:34:05.074Z,16.00
2018-09-22T18:36:33.391Z,15.90
2018-09-22T18:39:02.311Z,15.70
2018-09-22T18:41:30.984Z,15.50
2018-09-22T18:43:59.627Z,15.70
2018-09-22T18:46:28.007Z,15.30
2018-09-22T18:48:56.925Z,15.20
2018-09-22T18:51:25.584Z,15.30
2018-09-22T18:53:53.979Z,15.20
2018-09-22T18:56:22.371Z,15.20
2018-09-22T18:58:50.719Z,15.20
2018-09-22T19:01:19.070Z,15.20
2018-09-22T19:03:47.791Z,15.10
2018-09-22T19:06:16.172Z,15.10
2018-09-22T19:08:44.842Z,15.20
2018-09-22T19:11:13.447Z,14.90
2018-09-22T19:13:46.439Z,14.90
2018-09-22T19:16:22.346Z,14.90
2018-09-22T19:21:34.655Z,14.50
2018-09-22T19:24:10.834Z,14.30
2018-09-22T19:26:42.457Z,14.30
2018-09-22T19:29:14.875Z,14.30
2018-09-22T19:31:47.621Z,14.30
2018-09-22T19:34:20.886Z,14.30
2018-09-22T19:36:53.587Z,14.30
2018-09-22T19:39:26.302Z,14.20
2018-09-22T19:42:00.144Z,14.20
2018-09-22T19:44:34.023Z,14.20
2018-09-22T19:47:07.999Z,14.20
2018-09-22T19:49:39.875Z,14.20
2018-09-22T19:52:11.394Z,14.20
2018-09-22T19:54:40.302Z,14.20
2018-09-22T19:57:08.954Z,14.20
2018-09-22T19:59:37.378Z,14.10
2018-09-22T20:02:06.123Z,14.10
2018-09-22T20:04:34.515Z,14.10
2018-09-22T20:07:02.895Z,14.10
2018-09-22T20:09:31.262Z,14.10
2018-09-22T20:11:59.972Z,14.00
2018-09-22T20:14:28.552Z,14.00
2018-09-22T20:16:57.483Z,14.00
2018-09-22T20:19:26.151Z,13.90
2018-09-22T20:21:54.530Z,14.00
2018-09-22T20:24:22.901Z,13.90
2018-09-22T20:26:51.571Z,13.90
2018-09-22T20:29:20.494Z,13.80
2018-09-22T20:31:48.842Z,13.80
2018-09-22T20:34:17.767Z,13.80
2018-09-22T20:36:46.130Z,13.80
2018-09-22T20:39:15.409Z,13.70
2018-09-22T20:41:43.792Z,13.60
2018-09-22T20:44:12.136Z,13.40
2018-09-22T20:46:40.507Z,13.30
2018-09-22T20:49:09.159Z,13.30
2018-09-22T20:51:38.130Z,13.20
2018-09-22T20:54:06.623Z,13.20
2018-09-22T20:56:35.235Z,13.20
2018-09-22T20:59:03.642Z,13.30
2018-09-22T21:01:31.990Z,13.20
2018-09-22T21:04:00.351Z,13.20
2018-09-22T21:06:28.703Z,13.20
2018-09-22T21:08:57.136Z,13.30
2018-09-22T21:11:25.493Z,13.30
2018-09-22T21:13:53.877Z,13.30
2018-09-22T21:16:22.550Z,13.20
2018-09-22T21:18:51.469Z,13.30
2018-09-22T21:21:19.814Z,13.30
2018-09-22T21:23:48.260Z,13.40
2018-09-22T21:26:16.926Z,13.40
2018-09-22T21:28:45.303Z,13.30
2018-09-22T21:31:13.770Z,13.30
2018-09-22T21:33:42.356Z,13.30
2018-09-22T21:36:11.314Z,13.30
2018-09-22T21:38:39.671Z,13.30
2018-09-22T21:41:08.664Z,13.30
2018-09-22T21:43:37.286Z,13.30
2018-09-22T21:46:05.975Z,13.30
2018-09-22T21:48:34.347Z,13.40
2018-09-22T21:51:02.730Z,13.40
2018-09-22T21:53:31.138Z,13.30
2018-09-22T21:56:00.202Z,13.30
2018-09-22T21:58:29.178Z,13.20
2018-09-22T22:00:57.542Z,13.10
2018-09-22T22:03:25.887Z,13.00
2018-09-22T22:05:54.282Z,12.80
2018-09-22T22:08:22.714Z,12.80
2018-09-22T22:10:51.143Z,12.80
2018-09-22T22:13:19.723Z,12.90
2018-09-22T22:15:48.334Z,13.00
2018-09-22T22:18:17.238Z,13.00
2018-09-22T22:20:46.146Z,13.10
2018-09-22T22:23:14.767Z,13.00
2018-09-22T22:25:43.426Z,12.90
2018-09-22T22:28:11.785Z,12.80
2018-09-22T22:30:40.764Z,12.70
2018-09-22T22:33:09.162Z,12.60
2018-09-22T22:35:37.546Z,12.70
2018-09-22T22:38:06.198Z,12.70
2018-09-22T22:40:34.579Z,12.80
2018-09-22T22:43:02.931Z,12.90
2018-09-22T22:45:31.540Z,12.90
2018-09-22T22:48:00.118Z,12.90
2018-09-22T22:50:28.491Z,12.80
2018-09-22T22:52:56.858Z,12.80
2018-09-22T22:55:25.563Z,12.80
2018-09-22T22:57:54.307Z,12.90
2018-09-22T23:00:22.672Z,12.90
2018-09-22T23:02:51.034Z,12.90
2018-09-22T23:05:19.384Z,12.90
2018-09-22T23:07:47.783Z,12.90
2018-09-22T23:10:16.150Z,13.00
2018-09-22T23:12:44.759Z,13.00
2018-09-22T23:15:13.195Z,12.90
2018-09-22T23:17:41.545Z,12.80
2018-09-22T23:20:09.958Z,12.80
2018-09-22T23:22:38.314Z,12.70
2018-09-22T23:25:07.353Z,12.70
2018-09-22T23:27:36.015Z,12.60
2018-09-22T23:30:05.434Z,12.50
2018-09-22T23:32:33.871Z,12.40
2018-09-22T23:35:02.787Z,12.40
2018-09-22T23:37:32.318Z,12.40
2018-09-22T23:40:01.192Z,12.40
2018-09-22T23:42:29.568Z,12.30
2018-09-22T23:44:58.967Z,12.30
2018-09-22T23:47:27.615Z,12.30
2018-09-22T23:49:55.948Z,12.40
2018-09-22T23:52:24.295Z,12.40
2018-09-22T23:54:53.193Z,12.50
2018-09-22T23:57:21.899Z,12.40
2018-09-22T23:59:50.282Z,12.50
